sensor_id;sensor_type;location;lat;lon;timestamp;temperature;humidity
75838;SHT30;64480;52.040;113.502;2023-12-20T00:01:42;-28.04;69.52
75838;SHT30;64480;52.040;113.502;2023-12-20T00:04:45;-28.30;68.61
75838;SHT30;64480;52.040;113.502;2023-12-20T00:07:48;-28.42;67.16
75838;SHT30;64480;52.040;113.502;2023-12-20T00:10:53;-28.49;66.68
75838;SHT30;64480;52.040;113.502;2023-12-20T00:13:56;-28.48;67.25
75838;SHT30;64480;52.040;113.502;2023-12-20T00:17:00;-28.58;66.76
75838;SHT30;64480;52.040;113.502;2023-12-20T00:20:04;-28.88;65.24
75838;SHT30;64480;52.040;113.502;2023-12-20T00:23:10;-29.32;63.88
75838;SHT30;64480;52.040;113.502;2023-12-20T00:26:13;-29.53;63.32
75838;SHT30;64480;52.040;113.502;2023-12-20T00:29:18;-30.18;62.03
75838;SHT30;64480;52.040;113.502;2023-12-20T00:32:21;-30.72;60.53
75838;SHT30;64480;52.040;113.502;2023-12-20T00:35:24;-31.06;60.61
75838;SHT30;64480;52.040;113.502;2023-12-20T00:38:27;-31.27;61.17
75838;SHT30;64480;52.040;113.502;2023-12-20T00:41:30;-31.31;61.93
75838;SHT30;64480;52.040;113.502;2023-12-20T00:44:34;-31.23;62.47
75838;SHT30;64480;52.040;113.502;2023-12-20T00:47:38;-31.23;62.55
75838;SHT30;64480;52.040;113.502;2023-12-20T00:50:45;-31.17;62.55
75838;SHT30;64480;52.040;113.502;2023-12-20T00:53:49;-31.12;63.18
75838;SHT30;64480;52.040;113.502;2023-12-20T00:56:53;-30.86;64.21
75838;SHT30;64480;52.040;113.502;2023-12-20T00:59:57;-30.75;65.19
75838;SHT30;64480;52.040;113.502;2023-12-20T01:03:01;-30.61;65.33
75838;SHT30;64480;52.040;113.502;2023-12-20T01:06:04;-30.57;65.28
75838;SHT30;64480;52.040;113.502;2023-12-20T01:09:09;-30.55;64.96
75838;SHT30;64480;52.040;113.502;2023-12-20T01:12:13;-30.57;64.22
75838;SHT30;64480;52.040;113.502;2023-12-20T01:15:16;-30.43;64.61
75838;SHT30;64480;52.040;113.502;2023-12-20T01:18:20;-30.12;65.85
75838;SHT30;64480;52.040;113.502;2023-12-20T01:21:23;-29.71;67.16
75838;SHT30;64480;52.040;113.502;2023-12-20T01:24:27;-29.38;68.15
75838;SHT30;64480;52.040;113.502;2023-12-20T01:27:30;-29.10;68.47
75838;SHT30;64480;52.040;113.502;2023-12-20T01:30:34;-28.87;68.71
75838;SHT30;64480;52.040;113.502;2023-12-20T01:33:38;-28.70;68.54
75838;SHT30;64480;52.040;113.502;2023-12-20T01:36:42;-28.70;67.66
75838;SHT30;64480;52.040;113.502;2023-12-20T01:39:46;-28.76;66.92
75838;SHT30;64480;52.040;113.502;2023-12-20T01:43:06;-28.86;65.91
75838;SHT30;64480;52.040;113.502;2023-12-20T01:46:11;-28.91;65.00
75838;SHT30;64480;52.040;113.502;2023-12-20T01:49:16;-28.94;64.73
75838;SHT30;64480;52.040;113.502;2023-12-20T01:52:20;-28.79;64.90
75838;SHT30;64480;52.040;113.502;2023-12-20T01:55:25;-28.60;65.29
75838;SHT30;64480;52.040;113.502;2023-12-20T01:58:31;-28.52;65.19
75838;SHT30;64480;52.040;113.502;2023-12-20T02:01:35;-28.45;65.14
75838;SHT30;64480;52.040;113.502;2023-12-20T02:04:38;-28.16;65.23
75838;SHT30;64480;52.040;113.502;2023-12-20T02:07:42;-27.96;66.13
75838;SHT30;64480;52.040;113.502;2023-12-20T02:10:47;-27.79;66.09
75838;SHT30;64480;52.040;113.502;2023-12-20T02:13:51;-27.59;66.03
75838;SHT30;64480;52.040;113.502;2023-12-20T02:16:54;-27.38;66.18
75838;SHT30;64480;52.040;113.502;2023-12-20T02:19:57;-27.13;66.42
75838;SHT30;64480;52.040;113.502;2023-12-20T02:23:00;-26.96;65.86
75838;SHT30;64480;52.040;113.502;2023-12-20T02:26:04;-26.96;65.00
75838;SHT30;64480;52.040;113.502;2023-12-20T02:29:11;-26.92;64.40
75838;SHT30;64480;52.040;113.502;2023-12-20T02:32:14;-26.82;64.43
75838;SHT30;64480;52.040;113.502;2023-12-20T02:35:18;-26.75;64.18
75838;SHT30;64480;52.040;113.502;2023-12-20T02:38:21;-26.63;64.31
75838;SHT30;64480;52.040;113.502;2023-12-20T02:41:25;-26.57;63.92
75838;SHT30;64480;52.040;113.502;2023-12-20T02:44:29;-26.46;63.76
75838;SHT30;64480;52.040;113.502;2023-12-20T02:47:32;-26.28;63.95
75838;SHT30;64480;52.040;113.502;2023-12-20T02:50:36;-26.50;63.00
75838;SHT30;64480;52.040;113.502;2023-12-20T02:53:39;-26.36;63.57
75838;SHT30;64480;52.040;113.502;2023-12-20T02:56:43;-26.21;63.79
75838;SHT30;64480;52.040;113.502;2023-12-20T02:59:46;-26.17;63.51
75838;SHT30;64480;52.040;113.502;2023-12-20T03:02:49;-26.05;63.29
75838;SHT30;64480;52.040;113.502;2023-12-20T03:05:52;-25.90;63.68
75838;SHT30;64480;52.040;113.502;2023-12-20T03:08:56;-26.10;62.62
75838;SHT30;64480;52.040;113.502;2023-12-20T03:11:59;-26.02;63.37
75838;SHT30;64480;52.040;113.502;2023-12-20T03:15:03;-26.08;63.19
75838;SHT30;64480;52.040;113.502;2023-12-20T03:18:07;-25.97;63.63
75838;SHT30;64480;52.040;113.502;2023-12-20T03:21:10;-25.83;64.12
75838;SHT30;64480;52.040;113.502;2023-12-20T03:24:17;-25.87;63.66
75838;SHT30;64480;52.040;113.502;2023-12-20T03:27:20;-25.96;63.27
75838;SHT30;64480;52.040;113.502;2023-12-20T03:30:23;-25.89;63.67
75838;SHT30;64480;52.040;113.502;2023-12-20T03:33:26;-25.90;63.36
75838;SHT30;64480;52.040;113.502;2023-12-20T03:36:30;-25.80;63.59
75838;SHT30;64480;52.040;113.502;2023-12-20T03:39:34;-25.70;63.76
75838;SHT30;64480;52.040;113.502;2023-12-20T03:42:38;-25.69;63.47
75838;SHT30;64480;52.040;113.502;2023-12-20T03:45:42;-25.79;63.05
75838;SHT30;64480;52.040;113.502;2023-12-20T03:48:46;-25.62;63.67
75838;SHT30;64480;52.040;113.502;2023-12-20T03:51:49;-25.56;63.58
75838;SHT30;64480;52.040;113.502;2023-12-20T03:54:55;-25.48;63.60
75838;SHT30;64480;52.040;113.502;2023-12-20T03:57:59;-25.32;63.56
75838;SHT30;64480;52.040;113.502;2023-12-20T04:01:03;-25.13;63.73
75838;SHT30;64480;52.040;113.502;2023-12-20T04:04:07;-24.89;63.88
75838;SHT30;64480;52.040;113.502;2023-12-20T04:07:11;-24.82;63.34
75838;SHT30;64480;52.040;113.502;2023-12-20T04:10:15;-24.73;63.07
75838;SHT30;64480;52.040;113.502;2023-12-20T04:13:18;-24.52;63.05
75838;SHT30;64480;52.040;113.502;2023-12-20T04:16:22;-24.36;62.85
75838;SHT30;64480;52.040;113.502;2023-12-20T04:19:26;-24.17;62.69
75838;SHT30;64480;52.040;113.502;2023-12-20T04:22:30;-24.02;62.27
75838;SHT30;64480;52.040;113.502;2023-12-20T04:25:33;-23.92;62.56
75838;SHT30;64480;52.040;113.502;2023-12-20T04:28:37;-23.78;62.52
75838;SHT30;64480;52.040;113.502;2023-12-20T04:31:40;-23.63;62.72
75838;SHT30;64480;52.040;113.502;2023-12-20T04:34:44;-23.53;62.18
75838;SHT30;64480;52.040;113.502;2023-12-20T04:37:47;-23.40;62.12
75838;SHT30;64480;52.040;113.502;2023-12-20T04:40:52;-23.39;61.69
75838;SHT30;64480;52.040;113.502;2023-12-20T04:43:55;-23.29;62.01
75838;SHT30;64480;52.040;113.502;2023-12-20T04:46:58;-23.29;61.85
75838;SHT30;64480;52.040;113.502;2023-12-20T04:50:02;-23.20;61.79
75838;SHT30;64480;52.040;113.502;2023-12-20T04:53:07;-23.11;62.29
75838;SHT30;64480;52.040;113.502;2023-12-20T04:56:11;-23.02;62.01
75838;SHT30;64480;52.040;113.502;2023-12-20T04:59:15;-23.04;61.43
75838;SHT30;64480;52.040;113.502;2023-12-20T05:02:18;-22.71;61.57
75838;SHT30;64480;52.040;113.502;2023-12-20T05:05:21;-22.32;61.11
75838;SHT30;64480;52.040;113.502;2023-12-20T05:08:25;-22.34;59.75
75838;SHT30;64480;52.040;113.502;2023-12-20T05:11:28;-22.36;59.78
75838;SHT30;64480;52.040;113.502;2023-12-20T05:14:32;-22.36;60.19
75838;SHT30;64480;52.040;113.502;2023-12-20T05:17:35;-22.09;60.65
75838;SHT30;64480;52.040;113.502;2023-12-20T05:20:40;-21.97;60.45
75838;SHT30;64480;52.040;113.502;2023-12-20T05:23:44;-21.89;60.32
75838;SHT30;64480;52.040;113.502;2023-12-20T05:26:48;-21.73;60.74
75838;SHT30;64480;52.040;113.502;2023-12-20T05:29:55;-21.63;60.05
75838;SHT30;64480;52.040;113.502;2023-12-20T05:33:00;-21.55;59.54
75838;SHT30;64480;52.040;113.502;2023-12-20T05:36:04;-21.55;59.15
75838;SHT30;64480;52.040;113.502;2023-12-20T05:39:08;-21.46;59.06
75838;SHT30;64480;52.040;113.502;2023-12-20T05:42:11;-21.41;58.56
75838;SHT30;64480;52.040;113.502;2023-12-20T05:45:17;-21.36;58.49
75838;SHT30;64480;52.040;113.502;2023-12-20T05:48:20;-21.24;59.20
75838;SHT30;64480;52.040;113.502;2023-12-20T05:51:24;-21.15;59.15
75838;SHT30;64480;52.040;113.502;2023-12-20T05:54:27;-21.07;59.09
75838;SHT30;64480;52.040;113.502;2023-12-20T05:57:31;-20.96;59.14
75838;SHT30;64480;52.040;113.502;2023-12-20T06:00:34;-20.86;58.94
75838;SHT30;64480;52.040;113.502;2023-12-20T06:03:41;-20.85;59.05
75838;SHT30;64480;52.040;113.502;2023-12-20T06:06:44;-20.77;58.97
75838;SHT30;64480;52.040;113.502;2023-12-20T06:09:49;-20.79;58.72
75838;SHT30;64480;52.040;113.502;2023-12-20T06:12:53;-20.73;58.92
75838;SHT30;64480;52.040;113.502;2023-12-20T06:15:56;-20.72;59.09
75838;SHT30;64480;52.040;113.502;2023-12-20T06:19:00;-20.31;59.14
75838;SHT30;64480;52.040;113.502;2023-12-20T06:22:03;-20.26;57.62
75838;SHT30;64480;52.040;113.502;2023-12-20T06:25:09;-20.34;57.55
75838;SHT30;64480;52.040;113.502;2023-12-20T06:28:14;-20.36;58.11
75838;SHT30;64480;52.040;113.502;2023-12-20T06:31:17;-20.38;58.46
75838;SHT30;64480;52.040;113.502;2023-12-20T06:34:21;-20.36;58.67
75838;SHT30;64480;52.040;113.502;2023-12-20T06:37:25;-20.30;59.41
75838;SHT30;64480;52.040;113.502;2023-12-20T06:40:32;-20.19;59.44
75838;SHT30;64480;52.040;113.502;2023-12-20T06:43:36;-20.06;59.13
75838;SHT30;64480;52.040;113.502;2023-12-20T06:46:51;-19.92;59.20
75838;SHT30;64480;52.040;113.502;2023-12-20T06:49:54;-19.91;58.60
75838;SHT30;64480;52.040;113.502;2023-12-20T06:52:58;-19.85;58.46
75838;SHT30;64480;52.040;113.502;2023-12-20T06:56:01;-19.78;57.92
75838;SHT30;64480;52.040;113.502;2023-12-20T06:59:06;-19.70;57.89
75838;SHT30;64480;52.040;113.502;2023-12-20T07:02:09;-19.54;57.37
75838;SHT30;64480;52.040;113.502;2023-12-20T07:05:17;-19.46;56.87
75838;SHT30;64480;52.040;113.502;2023-12-20T07:08:25;-19.40;56.80
75838;SHT30;64480;52.040;113.502;2023-12-20T07:11:28;-19.36;56.90
75838;SHT30;64480;52.040;113.502;2023-12-20T07:14:32;-19.43;56.70
75838;SHT30;64480;52.040;113.502;2023-12-20T07:17:36;-19.51;56.50
75838;SHT30;64480;52.040;113.502;2023-12-20T07:20:40;-19.58;57.40
75838;SHT30;64480;52.040;113.502;2023-12-20T07:23:44;-19.67;57.67
75838;SHT30;64480;52.040;113.502;2023-12-20T07:26:48;-19.68;58.27
75838;SHT30;64480;52.040;113.502;2023-12-20T07:29:51;-19.71;58.99
75838;SHT30;64480;52.040;113.502;2023-12-20T07:32:56;-19.81;59.38
75838;SHT30;64480;52.040;113.502;2023-12-20T07:35:59;-19.82;59.34
75838;SHT30;64480;52.040;113.502;2023-12-20T07:39:04;-19.88;59.77
75838;SHT30;64480;52.040;113.502;2023-12-20T07:42:08;-19.88;59.67
75838;SHT30;64480;52.040;113.502;2023-12-20T07:45:12;-19.89;58.74
75838;SHT30;64480;52.040;113.502;2023-12-20T07:48:16;-19.89;59.08
75838;SHT30;64480;52.040;113.502;2023-12-20T07:51:19;-19.91;59.18
75838;SHT30;64480;52.040;113.502;2023-12-20T07:54:23;-19.99;59.58
75838;SHT30;64480;52.040;113.502;2023-12-20T07:57:29;-20.03;59.80
75838;SHT30;64480;52.040;113.502;2023-12-20T08:00:33;-20.05;60.72
75838;SHT30;64480;52.040;113.502;2023-12-20T08:03:38;-20.10;61.03
75838;SHT30;64480;52.040;113.502;2023-12-20T08:06:42;-20.30;61.00
75838;SHT30;64480;52.040;113.502;2023-12-20T08:09:47;-20.54;61.11
75838;SHT30;64480;52.040;113.502;2023-12-20T08:12:50;-20.73;61.57
75838;SHT30;64480;52.040;113.502;2023-12-20T08:15:53;-21.00;61.70
75838;SHT30;64480;52.040;113.502;2023-12-20T08:18:57;-21.08;62.36
75838;SHT30;64480;52.040;113.502;2023-12-20T08:22:01;-21.15;62.71
75838;SHT30;64480;52.040;113.502;2023-12-20T08:25:05;-21.20;63.45
75838;SHT30;64480;52.040;113.502;2023-12-20T08:28:09;-21.27;63.63
75838;SHT30;64480;52.040;113.502;2023-12-20T08:31:16;-21.34;63.94
75838;SHT30;64480;52.040;113.502;2023-12-20T08:34:20;-21.42;64.13
75838;SHT30;64480;52.040;113.502;2023-12-20T08:37:24;-21.48;64.29
75838;SHT30;64480;52.040;113.502;2023-12-20T08:40:29;-21.55;64.64
75838;SHT30;64480;52.040;113.502;2023-12-20T08:43:34;-21.56;64.93
75838;SHT30;64480;52.040;113.502;2023-12-20T08:46:38;-21.55;64.95
75838;SHT30;64480;52.040;113.502;2023-12-20T08:49:41;-21.56;65.21
75838;SHT30;64480;52.040;113.502;2023-12-20T08:52:45;-21.62;65.35
75838;SHT30;64480;52.040;113.502;2023-12-20T08:55:48;-21.65;65.67
75838;SHT30;64480;52.040;113.502;2023-12-20T08:58:52;-21.73;65.78
75838;SHT30;64480;52.040;113.502;2023-12-20T09:01:56;-21.84;65.63
75838;SHT30;64480;52.040;113.502;2023-12-20T09:05:01;-21.94;65.09
75838;SHT30;64480;52.040;113.502;2023-12-20T09:08:06;-22.00;65.51
75838;SHT30;64480;52.040;113.502;2023-12-20T09:11:12;-22.11;65.75
75838;SHT30;64480;52.040;113.502;2023-12-20T09:14:16;-22.24;65.57
75838;SHT30;64480;52.040;113.502;2023-12-20T09:17:22;-22.31;65.83
75838;SHT30;64480;52.040;113.502;2023-12-20T09:20:27;-22.25;66.52
75838;SHT30;64480;52.040;113.502;2023-12-20T09:23:31;-22.08;67.49
75838;SHT30;64480;52.040;113.502;2023-12-20T09:26:35;-22.05;67.38
75838;SHT30;64480;52.040;113.502;2023-12-20T09:29:38;-22.01;67.79
75838;SHT30;64480;52.040;113.502;2023-12-20T09:32:42;-21.90;68.31
75838;SHT30;64480;52.040;113.502;2023-12-20T09:35:49;-21.87;68.08
75838;SHT30;64480;52.040;113.502;2023-12-20T09:38:52;-21.80;67.83
75838;SHT30;64480;52.040;113.502;2023-12-20T09:42:03;-21.79;67.40
75838;SHT30;64480;52.040;113.502;2023-12-20T09:45:09;-21.74;66.75
75838;SHT30;64480;52.040;113.502;2023-12-20T09:48:17;-21.63;66.51
75838;SHT30;64480;52.040;113.502;2023-12-20T09:51:22;-21.62;65.89
75838;SHT30;64480;52.040;113.502;2023-12-20T09:54:29;-21.56;65.29
75838;SHT30;64480;52.040;113.502;2023-12-20T09:57:34;-21.55;65.26
75838;SHT30;64480;52.040;113.502;2023-12-20T10:00:39;-21.53;65.72
75838;SHT30;64480;52.040;113.502;2023-12-20T10:03:43;-21.53;65.67
75838;SHT30;64480;52.040;113.502;2023-12-20T10:06:47;-21.51;65.42
75838;SHT30;64480;52.040;113.502;2023-12-20T10:09:53;-21.49;65.28
75838;SHT30;64480;52.040;113.502;2023-12-20T10:13:03;-21.48;65.44
75838;SHT30;64480;52.040;113.502;2023-12-20T10:16:07;-21.46;65.44
75838;SHT30;64480;52.040;113.502;2023-12-20T10:19:10;-21.43;65.55
75838;SHT30;64480;52.040;113.502;2023-12-20T10:22:15;-21.42;65.44
75838;SHT30;64480;52.040;113.502;2023-12-20T23:43:55;-26.88;64.56
75838;SHT30;64480;52.040;113.502;2023-12-20T23:47:01;-26.87;64.94
75838;SHT30;64480;52.040;113.502;2023-12-20T23:50:08;-26.95;65.00
75838;SHT30;64480;52.040;113.502;2023-12-20T23:53:12;-27.07;64.63
75838;SHT30;64480;52.040;113.502;2023-12-20T23:56:16;-27.06;64.74
75838;SHT30;64480;52.040;113.502;2023-12-20T23:59:36;-26.91;65.51
